Flight Track Log - Related Links

Times and Time Zones

All times are in EST time to prevent confusion due to time zone crossing. See the UCA3599 flight status page for this flight to view local times or setup timezone preferences in your user account.

Time Position Orientation Groundspeed Altitude Reporting Facility
EST Latitude Longitude Course Direction KTS MPH feet Rate Location/Type
Tue 06:33:57 AM 42.2242 -76.0072 208° Southwest 112 129 3,000  Level New York Center
Tue 06:34:57 AM 42.2239 -76.0633 270° West 146 168 4,000 1,131 Climbing New York Center
Tue 06:35:59 AM 42.1725 -76.0956 205° Southwest 156 180 5,300 1,200 Climbing New York Center
Tue 06:36:57 AM 42.1247 -76.1364 212° Southwest 185 213 6,400 1,169 Climbing New York Center
Tue 06:37:57 AM 42.0750 -76.1800 213° Southwest 205 236 7,600 1,200 Climbing New York Center
Tue 06:38:57 AM 42.0172 -76.2142 204° Southwest 223 257 8,800 1,388 Climbing New York Center
Tue 06:39:00 AM 41.8267 -76.1610 208° Southwest  Level Estimated
Tue 06:39:58 AM 41.9639 -76.2406 200° South 224 258 10,400  Level New York Center
Tue 06:40:58 AM 41.9233 -76.2650 204° Southwest 196 226 11,800 1,240 Climbing New York Center
Tue 06:41:59 AM 41.8678 -76.2967 203° Southwest 191 220 12,900 1,200 Climbing New York Center
Tue 06:42:58 AM 41.8206 -76.3233 203° Southwest 197 227 14,200 1,412 Climbing New York Center
Tue 06:43:58 AM 41.7758 -76.3475 202° Southwest 192 221 15,700 908 Climbing New York Center
Tue 06:44:57 AM 41.7350 -76.3719 204° Southwest 177 204 16,000 151 Climbing New York Center
Tue 06:45:57 AM 41.6836 -76.4008 203° Southwest 189 217 16,000  Level New York Center
Tue 06:46:58 AM 41.6239 -76.4319 201° Southwest 204 235 16,000  Level New York Center
Tue 06:47:58 AM 41.5683 -76.4633 203° Southwest 209 241 16,000  Level New York Center
Tue 06:48:59 AM 41.5128 -76.4919 201° Southwest 216 249 16,000  Level New York Center
Tue 06:49:57 AM 41.4636 -76.5181 202° Southwest 216 249 16,000  Level New York Center
Tue 06:50:58 AM 41.4036 -76.5489 201° Southwest 216 249 16,000  Level New York Center
Tue 06:51:56 AM 41.3503 -76.5775 202° Southwest 216 249 16,000  Level New York Center
Tue 06:52:57 AM 41.2989 -76.6064 203° Southwest 216 249 16,000  Level New York Center
Tue 06:53:56 AM 41.2539 -76.6328 204° Southwest 211 243 16,000  Level New York Center
Tue 06:54:57 AM 41.2003 -76.6611 202° Southwest 211 243 16,000  Level New York Center
Tue 06:55:58 AM 41.1403 -76.6972 204° Southwest 211 243 16,000  Level New York Center
Tue 06:56:59 AM 41.0889 -76.7231 201° Southwest 211 243 16,000  Level New York Center
Tue 06:57:59 AM 41.0353 -76.7542 204° Southwest 211 243 16,000  Level New York Center
Tue 06:58:57 AM 40.9797 -76.7822 201° Southwest 211 243 16,000  Level New York Center
Tue 06:59:57 AM 40.9303 -76.8081 202° Southwest 216 249 16,000  Level New York Center
Tue 07:00:56 AM 40.8725 -76.8414 204° Southwest 216 249 16,000  Level New York Center
Tue 07:01:57 AM 40.8231 -76.8672 202° Southwest 221 254 16,000  Level New York Center
Tue 07:02:58 AM 40.7592 -76.8944 198° South 221 254 16,000  Level New York Center
Tue 07:03:59 AM 40.7019 -76.9139 194° South 221 254 16,000  Level New York Center
Tue 07:04:57 AM 40.6406 -76.9331 193° South 226 260 16,000  Level New York Center
Tue 07:05:57 AM 40.5833 -76.9497 192° South 221 254 16,000  Level New York Center
Tue 07:06:59 AM 40.5242 -76.9664 192° South 227 261 16,000  Level New York Center
Tue 07:07:56 AM 40.4689 -76.9858 195° South 222 255 16,000  Level New York Center
Tue 07:08:57 AM 40.4117 -77.0025 193° South 217 250 16,000  Level New York Center
Tue 07:09:58 AM 40.3586 -77.0197 194° South 217 250 16,000  Level New York Center
Tue 07:10:59 AM 40.2972 -77.0386 193° South 217 250 16,000  Level New York Center
Tue 07:11:59 AM 40.2442 -77.0556 194° South 217 250 16,000 -458 Level New York Center
Tue 07:12:57 AM 40.1786 -77.0742 192° South 222 255 15,100 -1,088 Descending New York Center
Tue 07:14:39 AM 40.0833 -77.1000 192° South 234 269 13,100 -1,154 Descending Potomac TRACON
Tue 07:15:33 AM 40.0167 -77.1167 191° South 241 277 12,100 -1,222 Descending Potomac TRACON
Tue 07:16:27 AM 39.9500 -77.1500 201° Southwest 256 295 10,900 -1,140 Descending Potomac TRACON
Tue 07:17:34 AM 39.8833 -77.1667 191° South 263 303 9,800 -945 Descending Potomac TRACON
Tue 07:18:34 AM 39.8167 -77.2000 201° Southwest 251 289 8,900 -730 Descending Potomac TRACON
Tue 07:19:29 AM 39.7500 -77.2167 191° South 231 266 8,400 -522 Descending Potomac TRACON
Tue 07:20:29 AM 39.7000 -77.2500 207° Southwest 233 268 7,900 -500 Descending Potomac TRACON
Tue 07:21:29 AM 39.6333 -77.2667 191° South 248 285 7,400 -446 Descending Potomac TRACON
Tue 07:22:30 AM 39.5667 -77.3000 201° Southwest 251 289 7,000 -209 Descending Potomac TRACON
Tue 07:23:24 AM 39.5167 -77.3167 194° South 241 277 7,000  Level Potomac TRACON
Tue 07:24:25 AM 39.4500 -77.3500 201° Southwest 230 265 7,000 -50 Level Potomac TRACON
Tue 07:25:25 AM 39.3833 -77.3667 191° South 238 274 6,900 -737 Descending Potomac TRACON
Tue 07:26:19 AM 39.3167 -77.3667 180° South 250 288 5,600 -1,000 Descending Potomac TRACON
Tue 07:27:19 AM 39.2500 -77.3667 180° South 257 296 5,000 -632 Descending Potomac TRACON
Tue 07:28:13 AM 39.1833 -77.3500 169° South 260 299 4,400 -522 Descending Potomac TRACON
Tue 07:29:14 AM 39.1000 -77.3500 180° South 252 290 4,000 -198 Descending Potomac TRACON
Tue 07:30:14 AM 39.0333 -77.3500 180° South 253 291 4,000  Level Potomac TRACON
Tue 07:31:08 AM 38.9667 -77.3500 180° South 259 298 4,000 -53 Level Potomac TRACON
Tue 07:32:08 AM 38.9000 -77.3500 180° South 257 296 3,900 -793 Descending Potomac TRACON
Tue 07:33:09 AM 38.8333 -77.3833 201° Southwest 223 257 2,400 -1,252 Descending Potomac TRACON
Tue 07:34:03 AM 38.8500 -77.4167 303° West 129 148 1,500 -632 Descending Potomac TRACON
Tue 07:35:03 AM 38.8833 -77.4333 339° North 95 109 1,200 -350 Descending Potomac TRACON
Tue 07:36:03 AM 38.9000 -77.4333 360° North 83 96 800 -400 Descending Potomac TRACON
Tue 07:38:00 AM 38.9333 -77.4500 349° North  Level FlightAware Approximate
Tue 07:45:00 AM 38.9474 -77.4599 349° North  Level Estimated

Login

Don't have an account? Register now (free) for customized features, flight alerts, and more!